createdAt,value
2017-04-04T00:01:05.871Z,1021.81
2017-04-04T00:02:15.526Z,1021.8
2017-04-04T00:03:25.485Z,1021.78
2017-04-04T00:04:35.686Z,1021.77
2017-04-04T00:05:45.034Z,1021.72
2017-04-04T00:06:55.313Z,1021.73
2017-04-04T00:08:05.277Z,1021.72
2017-04-04T00:09:15.555Z,1021.69
2017-04-04T00:10:26.083Z,1021.71
2017-04-04T00:11:36.352Z,1021.68
2017-04-04T00:12:46.632Z,1021.66
2017-04-04T00:13:56.902Z,1021.67
2017-04-04T00:15:07.170Z,1021.66
2017-04-04T00:16:17.709Z,1021.7
2017-04-04T00:17:27.983Z,1021.62
2017-04-04T00:18:38.250Z,1021.65
2017-04-04T00:19:48.517Z,1021.62
2017-04-04T00:20:58.793Z,1021.62
2017-04-04T00:22:09.316Z,1021.64
2017-04-04T00:23:19.587Z,1021.62
2017-04-04T00:24:29.868Z,1021.63
2017-04-04T00:25:39.831Z,1021.63
2017-04-04T00:26:50.105Z,1021.65
2017-04-04T00:28:00.002Z,1021.64
2017-04-04T00:29:10.274Z,1021.63
2017-04-04T00:30:20.557Z,1021.62
2017-04-04T00:31:30.825Z,1021.63
2017-04-04T00:32:40.787Z,1021.6
2017-04-04T00:33:51.051Z,1021.64
2017-04-04T00:35:01.326Z,1021.62
2017-04-04T00:36:11.596Z,1021.62
2017-04-04T00:37:21.869Z,1021.61
2017-04-04T00:38:31.827Z,1021.58
2017-04-04T00:39:42.035Z,1021.57
2017-04-04T00:40:52.302Z,1021.57
2017-04-04T00:42:02.257Z,1021.55
2017-04-04T00:43:12.222Z,1021.51
2017-04-04T00:44:21.868Z,1021.56
2017-04-04T00:45:32.394Z,1021.54
2017-04-04T00:46:42.356Z,1021.51
2017-04-04T00:47:52.636Z,1021.46
2017-04-04T00:49:02.909Z,1021.42
2017-04-04T00:50:13.176Z,1021.42
2017-04-04T00:51:23.377Z,1021.4
2017-04-04T00:52:33.659Z,1021.36
2017-04-04T00:53:43.924Z,1021.36
2017-04-04T00:54:54.201Z,1021.36
2017-04-04T00:56:04.467Z,1021.35
2017-04-04T00:57:14.993Z,1021.34
2017-04-04T00:58:25.268Z,1021.35
2017-04-04T00:59:35.540Z,1021.32
2017-04-04T01:00:45.811Z,1021.36
2017-04-04T01:01:56.085Z,1021.34
2017-04-04T01:03:06.655Z,1021.35
2017-04-04T01:04:16.338Z,1021.36
2017-04-04T01:05:26.301Z,1021.32
2017-04-04T01:06:36.263Z,1021.34
2017-04-04T01:07:46.225Z,1021.35
2017-04-04T01:08:56.738Z,1021.38
2017-04-04T01:10:07.014Z,1021.37
2017-04-04T01:11:17.286Z,1021.37
2017-04-04T01:12:27.247Z,1021.35
2017-04-04T01:13:37.521Z,1021.41
2017-04-04T01:14:48.047Z,1021.43
2017-04-04T01:15:57.999Z,1021.4
2017-04-04T01:17:08.264Z,1021.39
2017-04-04T01:18:17.927Z,1021.39
2017-04-04T01:19:28.193Z,1021.4
2017-04-04T01:20:38.715Z,1021.4
2017-04-04T01:21:48.989Z,1021.36
2017-04-04T01:22:58.657Z,1021.38
2017-04-04T01:24:08.306Z,1021.35
2017-04-04T01:25:18.582Z,1021.36
2017-04-04T01:26:29.103Z,1021.35
2017-04-04T01:27:39.384Z,1021.35
2017-04-04T01:28:49.354Z,1021.32
2017-04-04T01:29:59.319Z,1021.31
2017-04-04T01:31:09.586Z,1021.32
2017-04-04T01:32:20.100Z,1021.33
2017-04-04T01:33:30.450Z,1021.35
2017-04-04T01:34:40.718Z,1021.32
2017-04-04T01:35:51.040Z,1021.27
2017-04-04T01:37:01.009Z,1021.29
2017-04-04T01:38:10.966Z,1021.25
2017-04-04T01:39:21.238Z,1021.23
2017-04-04T01:40:31.509Z,1021.26
2017-04-04T01:41:41.472Z,1021.26
2017-04-04T01:42:51.477Z,1021.24
2017-04-04T01:44:02.039Z,1021.24
2017-04-04T01:45:12.306Z,1021.29
2017-04-04T01:46:21.960Z,1021.24
2017-04-04T01:47:31.932Z,1021.26
2017-04-04T01:48:41.897Z,1021.24
2017-04-04T01:49:52.413Z,1021.24
2017-04-04T01:51:02.062Z,1021.21
2017-04-04T01:52:11.703Z,1021.26
2017-04-04T01:53:21.974Z,1021.25
2017-04-04T01:54:32.248Z,1021.27
2017-04-04T01:55:42.764Z,1021.23
2017-04-04T01:56:53.042Z,1021.28
2017-04-04T01:58:02.999Z,1021.21
2017-04-04T01:59:12.999Z,1021.23
2017-04-04T02:00:23.265Z,1021.26
2017-04-04T02:01:33.848Z,1021.27
2017-04-04T02:02:44.119Z,1021.22
2017-04-04T02:03:54.081Z,1021.27
2017-04-04T02:05:04.043Z,1021.22
2017-04-04T02:06:14.316Z,1021.19
2017-04-04T02:07:24.265Z,1021.23
2017-04-04T02:08:34.618Z,1021.23
2017-04-04T02:09:44.904Z,1021.23
2017-04-04T02:10:54.856Z,1021.25
2017-04-04T02:12:05.205Z,1021.2
2017-04-04T02:13:15.739Z,1021.19
2017-04-04T02:14:25.716Z,1021.2
2017-04-04T02:15:35.985Z,1021.14
2017-04-04T02:16:45.951Z,1021.17
2017-04-04T02:17:55.912Z,1021.14
2017-04-04T02:19:06.437Z,1021.17
2017-04-04T02:20:16.548Z,1021.14
2017-04-04T02:21:26.191Z,1021.14
2017-04-04T02:22:36.453Z,1021.11
2017-04-04T02:23:46.409Z,1021.12
2017-04-04T02:24:56.926Z,1021.17
2017-04-04T02:26:07.206Z,1021.1
2017-04-04T02:27:17.477Z,1021.18
2017-04-04T02:28:27.439Z,1021.14
2017-04-04T02:29:37.706Z,1021.13
2017-04-04T02:30:47.909Z,1021.11
2017-04-04T02:31:57.888Z,1021.13
2017-04-04T02:33:08.160Z,1021.17
2017-04-04T02:34:18.440Z,1021.21
2017-04-04T02:35:28.716Z,1021.18
2017-04-04T02:36:38.926Z,1021.17
2017-04-04T02:37:49.205Z,1021.18
2017-04-04T02:38:59.461Z,1021.17
2017-04-04T02:40:09.432Z,1021.13
2017-04-04T02:41:19.700Z,1021.15
2017-04-04T02:42:30.277Z,1021.13
2017-04-04T02:43:40.232Z,1021.15
2017-04-04T02:44:50.501Z,1021.15
2017-04-04T02:46:00.821Z,1021.15
2017-04-04T02:47:10.789Z,1021.15
2017-04-04T02:55:04.114Z,1021.07
2017-04-04T02:56:14.382Z,1021.08
2017-04-04T02:57:24.654Z,1021.06
2017-04-04T02:58:34.617Z,1021.08
2017-04-04T02:59:44.927Z,1021.06
2017-04-04T03:00:54.892Z,1021.04
2017-04-04T03:02:05.173Z,1021.06
2017-04-04T03:03:15.142Z,1021.02
2017-04-04T03:04:25.398Z,1021.03
2017-04-04T03:05:35.666Z,1021.03
2017-04-04T03:06:45.940Z,1020.98
2017-04-04T03:07:56.219Z,1021.03
2017-04-04T03:09:05.869Z,1020.99
2017-04-04T03:10:16.134Z,1021.07
2017-04-04T03:11:26.702Z,1021.03
2017-04-04T03:12:36.667Z,1021.06
2017-04-04T03:13:46.942Z,1021.08
2017-04-04T03:14:57.211Z,1021.03
2017-04-04T03:16:07.168Z,1021.03
2017-04-04T03:17:17.732Z,1021.01
2017-04-04T03:18:28.011Z,1021.05
2017-04-04T03:19:38.275Z,1021.05
2017-04-04T03:20:48.545Z,1021.07
2017-04-04T03:21:58.821Z,1021.06
2017-04-04T03:23:09.086Z,1021.08
2017-04-04T03:24:19.360Z,1021.12
2017-04-04T03:25:29.626Z,1021.07
2017-04-04T03:26:39.570Z,1021.06
2017-04-04T03:27:49.834Z,1021.06
2017-04-04T03:29:00.413Z,1021.08
2017-04-04T03:30:10.369Z,1021.07
2017-04-04T03:31:20.326Z,1021.12
2017-04-04T03:32:30.604Z,1021.11
2017-04-04T03:33:40.567Z,1021.16
2017-04-04T03:34:51.103Z,1021.16
2017-04-04T03:36:01.066Z,1021.16
2017-04-04T03:37:11.355Z,1021.14
2017-04-04T03:38:21.618Z,1021.2
2017-04-04T03:39:31.580Z,1021.18
2017-04-04T03:40:42.158Z,1021.17
2017-04-04T03:41:52.443Z,1021.21
2017-04-04T03:43:02.716Z,1021.22
2017-04-04T03:44:12.997Z,1021.26
2017-04-04T03:45:22.961Z,1021.25
2017-04-04T03:46:33.488Z,1021.31
2017-04-04T03:47:43.763Z,1021.29
2017-04-04T03:48:54.037Z,1021.28
2017-04-04T03:50:03.679Z,1021.26
2017-04-04T03:51:13.017Z,1021.27
2017-04-04T03:52:23.537Z,1021.25
2017-04-04T03:53:33.497Z,1021.29
2017-04-04T03:54:43.766Z,1021.25
2017-04-04T03:55:54.057Z,1021.32
2017-04-04T03:57:04.323Z,1021.3
2017-04-04T03:58:14.546Z,1021.27
2017-04-04T03:59:24.809Z,1021.31
2017-04-04T04:00:35.085Z,1021.26
2017-04-04T04:01:45.387Z,1021.29
2017-04-04T04:02:55.669Z,1021.28
2017-04-04T04:04:06.194Z,1021.28
2017-04-04T04:05:16.151Z,1021.24
2017-04-04T04:06:26.105Z,1021.32
2017-04-04T04:07:36.383Z,1021.32
2017-04-04T04:08:46.660Z,1021.36
2017-04-04T04:09:57.224Z,1021.33
2017-04-04T04:11:07.496Z,1021.29
2017-04-04T04:12:17.756Z,1021.29
2017-04-04T04:13:27.728Z,1021.28
2017-04-04T04:14:38.002Z,1021.28
2017-04-04T04:15:48.587Z,1021.27
2017-04-04T04:16:58.587Z,1021.32
2017-04-04T04:18:08.864Z,1021.29
2017-04-04T04:19:19.137Z,1021.31
2017-04-04T04:20:29.410Z,1021.26
2017-04-04T04:21:39.629Z,1021.31
2017-04-04T04:22:49.589Z,1021.31
2017-04-04T04:23:59.868Z,1021.3
2017-04-04T04:25:10.134Z,1021.33
2017-04-04T04:26:19.787Z,1021.33
2017-04-04T04:27:29.993Z,1021.34
2017-04-04T04:28:39.962Z,1021.35
2017-04-04T04:29:50.227Z,1021.36
2017-04-04T04:30:59.891Z,1021.37
2017-04-04T04:32:10.171Z,1021.36
2017-04-04T04:33:20.752Z,1021.37
2017-04-04T04:34:31.022Z,1021.37
2017-04-04T04:35:41.295Z,1021.36
2017-04-04T04:36:51.566Z,1021.33
2017-04-04T04:38:01.838Z,1021.36
2017-04-04T04:39:12.362Z,1021.37
2017-04-04T04:40:22.622Z,1021.34
2017-04-04T04:41:32.891Z,1021.34
2017-04-04T04:42:42.538Z,1021.35
2017-04-04T04:43:52.495Z,1021.32
2017-04-04T04:45:03.042Z,1021.36
2017-04-04T04:46:13.317Z,1021.36
2017-04-04T04:47:23.586Z,1021.31
2017-04-04T04:48:33.540Z,1021.33
2017-04-04T04:49:43.813Z,1021.31
2017-04-04T04:50:54.385Z,1021.35
2017-04-04T04:52:04.665Z,1021.29
2017-04-04T04:53:14.933Z,1021.32
2017-04-04T04:54:25.433Z,1021.33
2017-04-04T04:55:35.764Z,1021.33
2017-04-04T04:56:46.343Z,1021.31
2017-04-04T04:57:56.663Z,1021.32
2017-04-04T04:59:06.930Z,1021.36
2017-04-04T05:00:17.201Z,1021.33
2017-04-04T05:01:27.724Z,1021.36
2017-04-04T05:02:37.945Z,1021.36
2017-04-04T05:03:48.221Z,1021.37
2017-04-04T05:04:58.497Z,1021.33
2017-04-04T05:06:08.146Z,1021.34
2017-04-04T05:07:18.433Z,1021.29
2017-04-04T05:08:28.387Z,1021.33
2017-04-04T05:09:38.656Z,1021.35
2017-04-04T05:10:48.987Z,1021.33
2017-04-04T05:11:58.949Z,1021.33
2017-04-04T05:13:09.223Z,1021.36
2017-04-04T05:14:20.179Z,1021.35
2017-04-04T05:15:30.159Z,1021.38
2017-04-04T05:16:40.433Z,1021.39
2017-04-04T05:17:50.548Z,1021.36
2017-04-04T05:19:00.823Z,1021.36
2017-04-04T05:20:10.791Z,1021.37
2017-04-04T05:21:21.091Z,1021.39
2017-04-04T05:22:31.055Z,1021.39
2017-04-04T05:23:40.717Z,1021.41
2017-04-04T05:24:50.988Z,1021.39
2017-04-04T05:26:01.272Z,1021.42
2017-04-04T05:27:11.601Z,1021.44
2017-04-04T05:28:21.890Z,1021.37
2017-04-04T05:29:32.171Z,1021.36
2017-04-04T05:30:42.133Z,1021.38
2017-04-04T05:31:52.658Z,1021.37
2017-04-04T05:33:02.952Z,1021.36
2017-04-04T05:34:12.922Z,1021.36
2017-04-04T05:35:23.198Z,1021.37
2017-04-04T05:36:33.522Z,1021.36
2017-04-04T05:37:44.103Z,1021.35
2017-04-04T05:38:54.373Z,1021.39
2017-04-04T05:40:04.654Z,1021.36
2017-04-04T05:41:14.928Z,1021.37
2017-04-04T05:42:25.326Z,1021.37
2017-04-04T05:43:35.900Z,1021.44
2017-04-04T05:44:46.166Z,1021.39
2017-04-04T05:45:56.139Z,1021.41
2017-04-04T05:47:05.784Z,1021.43
2017-04-04T05:48:15.761Z,1021.45
2017-04-04T05:49:26.332Z,1021.44
2017-04-04T05:50:36.604Z,1021.46
2017-04-04T05:51:46.323Z,1021.49
2017-04-04T05:52:56.614Z,1021.44
2017-04-04T05:54:06.895Z,1021.43
2017-04-04T05:55:17.464Z,1021.42
2017-04-04T05:56:27.431Z,1021.47
2017-04-04T05:57:37.710Z,1021.45
2017-04-04T05:58:47.720Z,1021.4
2017-04-04T05:59:57.690Z,1021.41
2017-04-04T06:01:08.226Z,1021.42
2017-04-04T06:02:18.227Z,1021.44
2017-04-04T06:03:28.527Z,1021.44
2017-04-04T06:04:38.804Z,1021.47
2017-04-04T06:05:49.081Z,1021.45
2017-04-04T06:06:59.311Z,1021.46
2017-04-04T06:08:08.986Z,1021.48
2017-04-04T06:09:18.959Z,1021.46
2017-04-04T06:10:28.918Z,1021.49
2017-04-04T06:11:38.908Z,1021.47
2017-04-04T06:12:49.437Z,1021.55
2017-04-04T06:13:59.661Z,1021.51
2017-04-04T06:15:09.633Z,1021.5
2017-04-04T06:16:20.265Z,1021.53
2017-04-04T06:17:29.966Z,1021.51
2017-04-04T06:18:40.500Z,1021.53
2017-04-04T06:19:50.774Z,1021.51
2017-04-04T06:21:01.046Z,1021.52
2017-04-04T06:22:11.329Z,1021.52
2017-04-04T06:23:21.296Z,1021.54
2017-04-04T06:24:31.851Z,1021.52
2017-04-04T06:25:42.131Z,1021.52
2017-04-04T06:26:52.096Z,1021.53
2017-04-04T06:28:02.370Z,1021.5
2017-04-04T06:29:12.642Z,1021.53
2017-04-04T06:30:22.912Z,1021.49
2017-04-04T06:31:32.872Z,1021.51
2017-04-04T06:32:43.146Z,1021.51
2017-04-04T06:33:53.455Z,1021.48
2017-04-04T06:35:03.417Z,1021.52
2017-04-04T06:36:13.370Z,1021.46
2017-04-04T06:37:23.671Z,1021.43
2017-04-04T06:38:33.948Z,1021.49
2017-04-04T06:39:44.538Z,1021.48
2017-04-04T06:40:54.814Z,1021.47
2017-04-04T06:42:05.450Z,1021.5
2017-04-04T06:43:15.737Z,1021.45
2017-04-04T06:44:25.707Z,1021.49
2017-04-04T06:45:35.983Z,1021.45
2017-04-04T06:46:46.275Z,1021.4
2017-04-04T06:47:56.501Z,1021.41
2017-04-04T06:49:06.463Z,1021.38
2017-04-04T06:50:16.744Z,1021.3
2017-04-04T06:51:26.751Z,1021.31
2017-04-04T06:52:37.037Z,1021.29
2017-04-04T06:53:47.574Z,1021.32
2017-04-04T06:54:57.549Z,1021.25
2017-04-04T06:56:07.820Z,1021.27
2017-04-04T06:57:17.802Z,1021.25
2017-04-04T06:58:28.083Z,1021.29
2017-04-04T06:59:38.603Z,1021.3
2017-04-04T07:00:48.569Z,1021.3
2017-04-04T07:01:58.837Z,1021.31
2017-04-04T07:03:08.812Z,1021.33
2017-04-04T07:04:19.089Z,1021.29
2017-04-04T07:05:29.625Z,1021.29
2017-04-04T07:06:39.612Z,1021.29
2017-04-04T07:07:49.934Z,1021.32
2017-04-04T07:08:59.903Z,1021.28
2017-04-04T07:10:10.247Z,1021.27
2017-04-04T07:11:20.192Z,1021.29
2017-04-04T07:12:30.175Z,1021.28
2017-04-04T07:13:40.152Z,1021.3
2017-04-04T07:14:50.440Z,1021.3
2017-04-04T07:16:00.765Z,1021.31
2017-04-04T07:17:11.005Z,1021.31
2017-04-04T07:18:20.983Z,1021.29
2017-04-04T07:19:30.952Z,1021.33
2017-04-04T07:20:41.233Z,1021.29
2017-04-04T07:21:51.538Z,1021.26
2017-04-04T07:23:02.138Z,1021.28
2017-04-04T07:24:12.123Z,1021.26
2017-04-04T07:25:22.394Z,1021.27
2017-04-04T07:26:32.373Z,1021.25
2017-04-04T07:27:42.541Z,1021.25
2017-04-04T07:28:53.124Z,1021.23
2017-04-04T07:30:03.404Z,1021.26
2017-04-04T07:31:13.681Z,1021.19
2017-04-04T07:32:23.977Z,1021.23
2017-04-04T07:33:34.271Z,1021.24
2017-04-04T07:34:44.851Z,1021.23
2017-04-04T07:35:55.129Z,1021.25
2017-04-04T07:37:05.106Z,1021.28
2017-04-04T07:38:14.764Z,1021.3
2017-04-04T07:39:24.429Z,1021.32
2017-04-04T07:40:34.702Z,1021.29
2017-04-04T07:41:44.977Z,1021.3
2017-04-04T07:42:54.995Z,1021.25
2017-04-04T07:44:05.269Z,1021.26
2017-04-04T07:45:15.442Z,1021.27
2017-04-04T07:46:26.179Z,1021.27
2017-04-04T07:47:36.463Z,1021.26
2017-04-04T07:48:46.821Z,1021.26
2017-04-04T07:49:57.112Z,1021.28
2017-04-04T07:51:07.421Z,1021.28
2017-04-04T07:52:17.985Z,1021.31
2017-04-04T07:53:28.016Z,1021.31
2017-04-04T07:54:38.304Z,1021.33
2017-04-04T07:55:47.678Z,1021.34
2017-04-04T07:56:57.594Z,1021.34
2017-04-04T07:58:08.242Z,1021.4
2017-04-04T07:59:18.514Z,1021.42
2017-04-04T08:00:28.794Z,1021.4
2017-04-04T08:01:38.777Z,1021.31
2017-04-04T08:02:49.087Z,1021.29
2017-04-04T08:03:59.670Z,1021.32
2017-04-04T08:05:09.939Z,1021.35
2017-04-04T08:06:20.210Z,1021.39
2017-04-04T08:07:30.518Z,1021.41
2017-04-04T08:08:40.226Z,1021.39
2017-04-04T08:09:50.767Z,1021.35
2017-04-04T08:11:01.058Z,1021.36
2017-04-04T08:12:11.336Z,1021.36
2017-04-04T08:13:21.653Z,1021.37
2017-04-04T08:14:31.641Z,1021.4
2017-04-04T08:15:42.185Z,1021.37
2017-04-04T08:16:52.493Z,1021.37
2017-04-04T08:18:02.494Z,1021.36
2017-04-04T08:19:12.786Z,1021.29
2017-04-04T08:20:23.145Z,1021.32
2017-04-04T08:21:33.694Z,1021.34
2017-04-04T08:22:44.028Z,1021.37
2017-04-04T08:23:54.325Z,1021.37
2017-04-04T08:25:04.627Z,1021.39
2017-04-04T08:26:14.543Z,1021.39
2017-04-04T08:27:24.831Z,1021.41
2017-04-04T08:28:34.543Z,1021.42
2017-04-04T08:29:44.823Z,1021.4
2017-04-04T08:30:55.143Z,1021.45
2017-04-04T08:32:05.438Z,1021.45
2017-04-04T08:33:16.052Z,1021.43
2017-04-04T08:34:26.351Z,1021.44
2017-04-04T08:35:36.639Z,1021.46
2017-04-04T08:36:46.619Z,1021.47
2017-04-04T08:37:56.606Z,1021.46
2017-04-04T08:39:06.528Z,1021.44
2017-04-04T08:40:16.829Z,1021.43
2017-04-04T08:41:26.184Z,1021.49
2017-04-04T08:42:36.474Z,1021.49
2017-04-04T08:43:46.517Z,1021.45
2017-04-04T08:44:57.118Z,1021.45
2017-04-04T08:46:07.146Z,1021.46
2017-04-04T08:47:17.439Z,1021.46
2017-04-04T08:48:27.728Z,1021.52
2017-04-04T08:49:38.026Z,1021.54
2017-04-04T08:50:47.950Z,1021.54
2017-04-04T08:51:58.276Z,1021.55
2017-04-04T08:53:08.258Z,1021.52
2017-04-04T08:54:18.262Z,1021.51
2017-04-04T08:55:28.616Z,1021.47
2017-04-04T08:56:38.888Z,1021.49
2017-04-04T08:57:49.197Z,1021.5
2017-04-04T08:58:59.509Z,1021.43
2017-04-04T09:00:09.503Z,1021.45
2017-04-04T09:01:19.796Z,1021.42
2017-04-04T09:02:30.419Z,1021.41
2017-04-04T09:03:40.712Z,1021.44
2017-04-04T09:04:50.683Z,1021.39
2017-04-04T09:06:01.030Z,1021.41
2017-04-04T09:07:11.331Z,1021.42
2017-04-04T09:08:21.923Z,1021.49
2017-04-04T09:09:32.233Z,1021.48
2017-04-04T09:10:42.203Z,1021.48
2017-04-04T09:11:52.169Z,1021.47
2017-04-04T09:13:02.445Z,1021.44
2017-04-04T09:14:12.660Z,1021.45
2017-04-04T09:15:22.933Z,1021.43
2017-04-04T09:16:33.224Z,1021.39
2017-04-04T09:17:43.539Z,1021.35
2017-04-04T09:18:53.542Z,1021.35
2017-04-04T09:20:03.447Z,1021.35
2017-04-04T09:21:13.421Z,1021.37
2017-04-04T09:22:23.711Z,1021.36
2017-04-04T09:23:34.026Z,1021.43
2017-04-04T09:24:43.695Z,1021.43
2017-04-04T09:25:54.275Z,1021.42
2017-04-04T09:27:04.576Z,1021.47
2017-04-04T09:28:14.559Z,1021.44
2017-04-04T09:29:24.521Z,1021.44
2017-04-04T09:30:34.802Z,1021.46
2017-04-04T09:31:45.400Z,1021.47
2017-04-04T09:32:55.373Z,1021.4
2017-04-04T09:34:05.656Z,1021.41
2017-04-04T09:35:15.932Z,1021.41
2017-04-04T09:36:26.066Z,1021.39
2017-04-04T09:37:36.593Z,1021.43
2017-04-04T09:38:46.286Z,1021.4
2017-04-04T09:39:56.257Z,1021.46
2017-04-04T09:41:06.561Z,1021.4
2017-04-04T09:42:16.860Z,1021.37
2017-04-04T09:43:27.403Z,1021.38
2017-04-04T09:44:37.724Z,1021.32
2017-04-04T09:45:48.022Z,1021.34
2017-04-04T09:46:58.080Z,1021.36
2017-04-04T09:48:08.410Z,1021.29
2017-04-04T09:49:18.354Z,1021.36
2017-04-04T09:50:28.332Z,1021.39
2017-04-04T09:51:38.652Z,1021.4
2017-04-04T09:52:48.937Z,1021.47
2017-04-04T09:53:59.249Z,1021.43
2017-04-04T09:55:09.806Z,1021.4
2017-04-04T09:56:20.110Z,1021.39
2017-04-04T09:57:29.805Z,1021.37
2017-04-04T09:58:40.099Z,1021.4
2017-04-04T09:59:50.079Z,1021.35
2017-04-04T10:01:00.313Z,1021.38
2017-04-04T10:02:10.288Z,1021.33
2017-04-04T10:03:20.604Z,1021.33
2017-04-04T10:04:30.603Z,1021.28
2017-04-04T10:05:40.570Z,1021.3
2017-04-04T10:06:50.894Z,1021.3
2017-04-04T10:08:00.872Z,1021.28
2017-04-04T10:09:10.923Z,1021.26
2017-04-04T10:10:20.947Z,1021.26
2017-04-04T10:11:31.229Z,1021.28
2017-04-04T10:12:41.767Z,1021.22
2017-04-04T10:13:51.779Z,1021.23
2017-04-04T10:15:02.125Z,1021.18
2017-04-04T10:16:12.457Z,1021.19
2017-04-04T10:17:22.460Z,1021.17
2017-04-04T10:18:32.996Z,1021.14
2017-04-04T10:19:43.294Z,1021.1
2017-04-04T10:20:53.588Z,1021.09
2017-04-04T10:22:03.880Z,1021.12
2017-04-04T10:23:14.161Z,1021.09
2017-04-04T10:24:24.711Z,1021.08
2017-04-04T10:25:34.985Z,1021.08
2017-04-04T10:26:44.974Z,1021.02
2017-04-04T10:27:55.247Z,1021.09
2017-04-04T10:29:05.220Z,1021.1
2017-04-04T10:30:15.768Z,1021.1
2017-04-04T10:31:25.485Z,1021.12
2017-04-04T10:32:35.685Z,1021.13
2017-04-04T10:33:46.000Z,1021.14
2017-04-04T10:34:56.015Z,1021.11
2017-04-04T10:36:06.248Z,1021.1
2017-04-04T10:37:16.573Z,1021.11
2017-04-04T10:38:26.860Z,1021.06
2017-04-04T10:39:36.859Z,1021.05
2017-04-04T10:40:46.845Z,1021.05
2017-04-04T10:41:56.807Z,1021.01
2017-04-04T10:43:07.141Z,1021.04
2017-04-04T10:44:17.455Z,1021.06
2017-04-04T10:45:27.417Z,1021.08
2017-04-04T10:46:37.742Z,1021.03
2017-04-04T10:47:48.334Z,1021
2017-04-04T10:48:58.653Z,1020.98
2017-04-04T10:50:08.960Z,1020.94
2017-04-04T10:51:18.927Z,1020.93
2017-04-04T10:52:29.248Z,1020.88
2017-04-04T10:53:39.504Z,1020.93
2017-04-04T10:54:49.487Z,1020.93
2017-04-04T10:55:59.778Z,1020.89
2017-04-04T10:57:10.083Z,1020.87
2017-04-04T10:58:20.063Z,1020.84
2017-04-04T10:59:30.656Z,1020.78
2017-04-04T11:00:40.944Z,1020.77
2017-04-04T11:01:50.914Z,1020.81
2017-04-04T11:03:01.205Z,1020.77
2017-04-04T11:04:11.510Z,1020.83
2017-04-04T11:05:21.745Z,1020.84
2017-04-04T11:06:32.014Z,1020.83
2017-04-04T11:07:42.302Z,1020.87
2017-04-04T11:08:52.591Z,1020.8
2017-04-04T11:10:02.869Z,1020.82
2017-04-04T11:11:13.459Z,1020.81
2017-04-04T11:12:23.747Z,1020.78
2017-04-04T11:13:34.033Z,1020.83
2017-04-04T11:14:44.328Z,1020.82
2017-04-04T11:15:54.636Z,1020.84
2017-04-04T11:17:04.562Z,1020.78
2017-04-04T11:18:14.836Z,1020.82
2017-04-04T11:19:24.801Z,1020.74
2017-04-04T11:20:35.085Z,1020.68
2017-04-04T11:21:45.056Z,1020.67
2017-04-04T11:22:55.596Z,1020.68
2017-04-04T11:24:05.593Z,1020.64
2017-04-04T11:25:15.565Z,1020.68
2017-04-04T11:26:25.860Z,1020.66
2017-04-04T11:27:35.829Z,1020.61
2017-04-04T11:28:46.044Z,1020.61
2017-04-04T11:29:56.332Z,1020.62
2017-04-04T11:31:06.631Z,1020.63
2017-04-04T11:32:16.922Z,1020.61
2017-04-04T11:33:27.259Z,1020.59
2017-04-04T11:34:37.530Z,1020.58
2017-04-04T11:35:47.812Z,1020.65
2017-04-04T11:36:57.784Z,1020.58
2017-04-04T11:38:08.317Z,1020.56
2017-04-04T11:39:18.592Z,1020.53
2017-04-04T11:40:28.859Z,1020.53
2017-04-04T11:41:39.141Z,1020.55
2017-04-04T11:42:49.422Z,1020.59
2017-04-04T11:43:59.705Z,1020.54
2017-04-04T11:45:09.986Z,1020.53
2017-04-04T11:46:20.533Z,1020.52
2017-04-04T11:47:30.826Z,1020.56
2017-04-04T11:48:40.789Z,1020.56
2017-04-04T11:49:51.077Z,1020.52
2017-04-04T11:51:01.389Z,1020.51
2017-04-04T11:52:11.925Z,1020.51
2017-04-04T11:53:21.888Z,1020.5
2017-04-04T11:54:32.186Z,1020.5
2017-04-04T11:55:42.476Z,1020.48
2017-04-04T11:56:52.449Z,1020.49
2017-04-04T11:58:02.986Z,1020.51
2017-04-04T11:59:13.276Z,1020.51
2017-04-04T12:00:23.568Z,1020.51
2017-04-04T12:01:33.562Z,1020.49
2017-04-04T12:02:43.542Z,1020.45
2017-04-04T12:03:54.154Z,1020.49
2017-04-04T12:05:04.122Z,1020.48
2017-04-04T12:06:13.774Z,1020.49
2017-04-04T12:07:24.053Z,1020.51
2017-04-04T12:08:34.366Z,1020.51
2017-04-04T12:09:44.593Z,1020.47
2017-04-04T12:10:54.886Z,1020.38
2017-04-04T12:12:05.181Z,1020.44
2017-04-04T12:13:15.488Z,1020.42
2017-04-04T12:14:25.772Z,1020.43
2017-04-04T12:15:36.363Z,1020.39
2017-04-04T12:16:46.019Z,1020.38
2017-04-04T12:17:56.309Z,1020.32
2017-04-04T12:19:06.282Z,1020.34
2017-04-04T12:20:16.566Z,1020.27
2017-04-04T12:21:27.107Z,1020.29
2017-04-04T12:22:37.425Z,1020.32
2017-04-04T12:23:47.388Z,1020.31
2017-04-04T12:24:57.352Z,1020.32
2017-04-04T12:26:07.327Z,1020.31
2017-04-04T12:27:17.881Z,1020.35
2017-04-04T12:28:28.164Z,1020.32
2017-04-04T12:29:38.134Z,1020.35
2017-04-04T12:30:48.418Z,1020.29
2017-04-04T12:31:58.404Z,1020.31
2017-04-04T12:33:09.007Z,1020.28
2017-04-04T12:34:18.980Z,1020.26
2017-04-04T12:35:29.644Z,1020.3
2017-04-04T12:36:39.978Z,1020.25
2017-04-04T12:37:49.971Z,1020.27
2017-04-04T12:39:00.507Z,1020.21
2017-04-04T12:40:10.797Z,1020.25
2017-04-04T12:41:20.777Z,1020.25
2017-04-04T12:42:31.073Z,1020.21
2017-04-04T12:43:41.049Z,1020.17
2017-04-04T12:44:51.640Z,1020.18
2017-04-04T12:46:01.917Z,1020.11
2017-04-04T12:47:12.203Z,1020.12
2017-04-04T12:48:22.184Z,1020.06
2017-04-04T12:49:32.497Z,1020.01
2017-04-04T12:50:43.045Z,1020
2017-04-04T12:51:53.320Z,1019.99
2017-04-04T12:53:03.318Z,1020
2017-04-04T12:54:13.667Z,1019.93
2017-04-04T12:55:23.651Z,1019.92
2017-04-04T12:56:33.877Z,1019.93
2017-04-04T12:57:43.867Z,1019.88
2017-04-04T12:58:54.186Z,1019.89
2017-04-04T13:00:04.480Z,1019.87
2017-04-04T13:01:14.762Z,1019.87
2017-04-04T13:02:25.316Z,1019.85
2017-04-04T13:03:35.628Z,1019.83
2017-04-04T13:04:45.929Z,1019.83
2017-04-04T13:05:56.883Z,1019.74
2017-04-04T13:07:07.176Z,1019.78
2017-04-04T13:08:17.761Z,1019.81
2017-04-04T13:09:28.056Z,1019.78
2017-04-04T13:10:38.339Z,1019.79
2017-04-04T13:11:48.604Z,1019.81
2017-04-04T13:12:58.572Z,1019.75
2017-04-04T13:14:09.151Z,1019.78
2017-04-04T13:15:19.449Z,1019.76
2017-04-04T13:16:29.423Z,1019.77
2017-04-04T13:17:39.711Z,1019.78
2017-04-04T13:18:49.992Z,1019.78
2017-04-04T13:20:00.250Z,1019.79
2017-04-04T13:21:10.230Z,1019.76
2017-04-04T13:22:20.209Z,1019.78
2017-04-04T13:23:30.485Z,1019.8
2017-04-04T13:24:40.757Z,1019.77
2017-04-04T13:25:51.296Z,1019.72
2017-04-04T13:27:01.610Z,1019.77
2017-04-04T13:28:11.897Z,1019.73
2017-04-04T13:29:21.884Z,1019.77
2017-04-04T13:30:32.187Z,1019.77
2017-04-04T13:31:42.735Z,1019.81
2017-04-04T13:32:52.732Z,1019.77
2017-04-04T13:34:03.024Z,1019.81
2017-04-04T13:35:13.326Z,1019.82
2017-04-04T13:36:23.299Z,1019.8
2017-04-04T13:37:33.893Z,1019.85
2017-04-04T13:38:44.182Z,1019.83
2017-04-04T13:39:54.472Z,1019.88
2017-04-04T13:41:04.760Z,1019.88
2017-04-04T13:42:15.052Z,1019.93
2017-04-04T13:43:25.329Z,1019.93
2017-04-04T13:44:35.630Z,1019.95
2017-04-04T13:45:45.904Z,1019.91
2017-04-04T13:46:56.226Z,1019.95
2017-04-04T13:48:06.502Z,1019.92
2017-04-04T13:49:16.773Z,1019.92
2017-04-04T13:50:27.060Z,1019.94
2017-04-04T13:51:37.343Z,1019.91
2017-04-04T13:52:47.626Z,1019.91
2017-04-04T13:53:57.899Z,1019.89
2017-04-04T13:55:08.491Z,1019.84
2017-04-04T13:56:18.761Z,1019.82
2017-04-04T13:57:29.042Z,1019.79
2017-04-04T13:58:39.338Z,1019.83
2017-04-04T13:59:49.001Z,1019.86
2017-04-04T14:00:59.625Z,1019.8
2017-04-04T14:02:09.588Z,1019.82
2017-04-04T14:03:19.872Z,1019.87
2017-04-04T14:04:29.864Z,1019.83
2017-04-04T14:05:39.829Z,1019.86
2017-04-04T14:06:50.418Z,1019.87
2017-04-04T14:08:00.402Z,1019.8
2017-04-04T14:09:10.372Z,1019.8
2017-04-04T14:10:20.665Z,1019.82
2017-04-04T14:11:30.948Z,1019.8
2017-04-04T14:12:41.213Z,1019.77
2017-04-04T14:13:51.499Z,1019.83
2017-04-04T14:15:01.464Z,1019.79
2017-04-04T14:16:11.437Z,1019.83
2017-04-04T14:17:21.714Z,1019.79
2017-04-04T14:18:32.315Z,1019.81